Decoded Metar for KOKK (KOKOMO in IN, USA) (IATA:OKK) | Meteo·Mobile Aviation Weather
aviador You're here:

KOKK Decoded Metar

KOKOMO in IN, USA
Report Time2018-09-18 20:56:00
UTC Time2018-09-18 21:39:59
Flight Rules vfr VFR
Wind340° at 07 kt
W.Decomp.*RWY 32: 6.5 kt HW 2.6 kt RCW
RWY 05: 2.6 kt HW 6.5 kt LCW
W.Rank340° ranks 23
Current wind is below 340° avg. (8.5)
Visibility9999 m
Phenomena:N/A
Clouds:Broken 095 Hf
Expected CloudBase > 6,000 ft AGL from Temp-Dew spread
Ceiling9,500 ft
Temp32°C (ISA +19)
Dew Point17°C (41% RH)
Heat Index32.5°C
AAT31.9°C
QNH1013 hPa
Density Alt3,215 ft
Elevation830 ft
Report Wrong Elevation
Raw Report
KOKK 182056Z AUTO 34007KT 10SM BKN095 32/17 A2991 RMK AO2 SLP124
6//// T03170172 56011=

Extra information for KOKK:More info

Metar Taf Metar & Taf Last 4 Metars F.Rules Stats Wind Profile Meteogram Temp Stats Airport Information Weather charts Add Link Nearby VenuesMetar ALERT Operation Metar Decoded Social comments

AIRNAV info for KOKK